createdAt,value
2018-12-01T00:00:24.182Z,12.33
2018-12-01T00:05:21.690Z,16.13
2018-12-01T00:10:19.145Z,21.97
2018-12-01T00:15:18.716Z,23.40
2018-12-01T00:20:19.037Z,19.73
2018-12-01T00:25:16.429Z,24.10
2018-12-01T00:30:16.811Z,23.53
2018-12-01T00:35:14.269Z,31.87
2018-12-01T00:40:14.782Z,29.23
2018-12-01T00:45:13.269Z,23.33
2018-12-01T00:50:15.725Z,21.50
2018-12-01T00:55:14.133Z,17.30
2018-12-01T01:00:23.925Z,23.50
2018-12-01T01:05:23.155Z,28.17
2018-12-01T01:10:21.527Z,20.87
2018-12-01T01:15:18.948Z,16.13
2018-12-01T01:20:21.368Z,22.80
2018-12-01T01:25:18.781Z,29.43
2018-12-01T01:30:18.385Z,26.97
2018-12-01T01:35:15.883Z,31.90
2018-12-01T01:40:15.061Z,18.10
2018-12-01T01:45:14.493Z,22.07
2018-12-01T01:50:14.095Z,34.27
2018-12-01T01:55:11.809Z,23.47
2018-12-01T02:00:18.916Z,21.67
2018-12-01T02:05:17.193Z,23.40
2018-12-01T02:10:15.553Z,27.40
2018-12-01T02:15:13.577Z,28.73
2018-12-01T02:20:13.925Z,31.30
2018-12-01T02:25:13.138Z,24.47
2018-12-01T02:30:15.217Z,26.60
2018-12-01T02:35:15.893Z,29.17
2018-12-01T02:40:13.510Z,27.87
2018-12-01T02:45:22.377Z,31.60
2018-12-01T02:50:22.770Z,24.10
2018-12-01T02:55:20.138Z,26.23
2018-12-01T03:00:17.578Z,26.53
2018-12-01T03:05:15.030Z,35.20
2018-12-01T03:10:14.289Z,30.10
2018-12-01T03:15:12.620Z,26.37
2018-12-01T03:20:13.298Z,37.67
2018-12-01T03:25:18.165Z,36.83
2018-12-01T03:30:19.431Z,33.80
2018-12-01T03:35:17.217Z,25.87
2018-12-01T03:40:15.203Z,29.53
2018-12-01T03:45:13.782Z,31.17
2018-12-01T03:50:12.260Z,45.37
2018-12-01T03:55:21.050Z,30.83
2018-12-01T04:00:24.056Z,38.70
2018-12-01T04:05:21.492Z,27.97
2018-12-01T04:10:18.910Z,34.60
2018-12-01T04:15:16.356Z,27.80
2018-12-01T04:20:13.777Z,27.10
2018-12-01T04:25:11.177Z,35.97
2018-12-01T04:30:14.648Z,20.50
2018-12-01T04:35:17.994Z,34.77
2018-12-01T04:40:15.469Z,32.50
2018-12-01T04:45:12.917Z,24.13
2018-12-01T04:50:11.662Z,25.17
2018-12-01T04:55:12.110Z,22.13
2018-12-01T05:00:12.327Z,21.80
2018-12-01T05:05:14.952Z,32.43
2018-12-01T05:10:14.200Z,36.80
2018-12-01T05:15:18.888Z,32.90
2018-12-01T05:20:18.340Z,23.60
2018-12-01T05:25:15.768Z,23.17
2018-12-01T05:30:14.400Z,27.17
2018-12-01T05:35:19.630Z,24.80
2018-12-01T05:40:17.071Z,23.47
2018-12-01T05:45:15.742Z,23.63
2018-12-01T05:50:15.097Z,27.37
2018-12-01T05:55:12.561Z,24.13
2018-12-01T06:00:14.176Z,30.17
2018-12-01T06:05:11.822Z,22.13
2018-12-01T06:10:17.383Z,29.00
2018-12-01T06:15:15.630Z,23.63
2018-12-01T06:20:14.467Z,44.53
2018-12-01T06:25:13.129Z,23.10
2018-12-01T06:30:16.628Z,30.63
2018-12-01T06:35:14.148Z,29.23
2018-12-01T06:40:13.649Z,25.60
2018-12-01T06:45:12.036Z,26.80
2018-12-01T06:50:11.661Z,31.13
2018-12-01T06:55:10.298Z,18.70
2018-12-01T07:00:13.302Z,36.50
2018-12-01T07:05:11.714Z,20.40
2018-12-01T07:10:11.610Z,17.43
2018-12-01T07:15:12.043Z,25.67
2018-12-01T07:20:09.773Z,31.17
2018-12-01T07:25:07.567Z,14.67
2018-12-01T07:30:11.401Z,28.23
2018-12-01T07:35:10.220Z,17.90
2018-12-01T07:40:13.045Z,18.17
2018-12-01T07:45:11.767Z,19.93
2018-12-01T07:50:13.333Z,15.03
2018-12-01T07:55:10.779Z,17.67
2018-12-01T08:00:12.040Z,24.13
2018-12-01T08:05:10.391Z,17.47
2018-12-01T08:10:09.612Z,23.63
2018-12-01T08:15:09.164Z,14.93
2018-12-01T08:20:08.507Z,23.37
2018-12-01T08:25:08.326Z,14.77
2018-12-01T08:30:15.727Z,14.07
2018-12-01T08:35:13.211Z,22.67
2018-12-01T08:40:12.151Z,18.73
2018-12-01T08:45:10.342Z,20.17
2018-12-01T08:50:10.051Z,20.43
2018-12-01T08:55:09.174Z,23.03
2018-12-01T09:00:16.531Z,13.63
2018-12-01T09:05:14.036Z,27.13
2018-12-01T09:10:11.505Z,25.97
2018-12-01T09:15:10.770Z,19.10
2018-12-01T09:20:11.212Z,13.30
2018-12-01T09:25:10.101Z,22.37
2018-12-01T09:30:12.941Z,16.83
2018-12-01T09:35:10.444Z,13.00
2018-12-01T09:40:10.457Z,12.50
2018-12-01T09:45:10.897Z,19.40
2018-12-01T09:50:10.409Z,15.27
2018-12-01T09:55:09.184Z,17.37
2018-12-01T10:00:10.670Z,12.83
2018-12-01T10:05:09.686Z,12.60
2018-12-01T10:10:08.873Z,13.60
2018-12-01T10:15:08.597Z,8.80
2018-12-01T10:20:09.044Z,8.47
2018-12-01T10:25:09.421Z,16.40
2018-12-01T10:30:15.008Z,8.83
2018-12-01T10:35:14.545Z,8.63
2018-12-01T10:40:12.406Z,16.97
2018-12-01T10:45:15.195Z,13.50
2018-12-01T10:50:13.551Z,7.93
2018-12-01T10:55:20.670Z,8.53
2018-12-01T11:00:24.704Z,7.80
2018-12-01T11:05:22.213Z,12.27
2018-12-01T11:10:19.730Z,14.23
2018-12-01T11:15:17.240Z,5.17
2018-12-01T11:20:14.690Z,10.13
2018-12-01T11:25:13.156Z,16.00
2018-12-01T11:30:15.763Z,26.77
2018-12-01T11:35:13.338Z,13.00
2018-12-01T11:40:13.062Z,18.00
2018-12-01T11:45:11.605Z,19.33
2018-12-01T11:50:17.083Z,9.33
2018-12-01T11:55:15.756Z,13.43
2018-12-01T12:00:15.108Z,15.13
2018-12-01T12:05:13.700Z,15.73
2018-12-01T12:10:11.172Z,5.10
2018-12-01T12:15:09.641Z,15.37
2018-12-01T12:20:08.830Z,10.73
2018-12-01T12:25:09.623Z,14.50
2018-12-01T12:30:11.463Z,16.13
2018-12-01T12:35:10.222Z,13.87
2018-12-01T12:40:11.950Z,10.53
2018-12-01T12:45:10.584Z,3.90
2018-12-01T12:50:11.997Z,12.97
2018-12-01T12:55:12.449Z,7.20
2018-12-01T13:00:15.828Z,7.50
2018-12-01T13:05:14.831Z,9.00
2018-12-01T13:10:20.181Z,9.87
2018-12-01T13:15:17.641Z,12.60
2018-12-01T13:20:21.143Z,7.80
2018-12-01T13:25:18.566Z,5.93
2018-12-01T13:30:18.751Z,16.67
2018-12-01T13:35:16.315Z,12.63
2018-12-01T13:40:14.722Z,12.97
2018-12-01T13:45:14.985Z,8.60
2018-12-01T13:50:15.488Z,8.80
2018-12-01T13:55:12.961Z,7.70
2018-12-01T14:00:13.000Z,11.23
2018-12-01T14:05:11.218Z,6.90
2018-12-01T14:10:12.679Z,3.87
2018-12-01T14:15:13.334Z,5.37
2018-12-01T14:20:13.773Z,10.87
2018-12-01T14:25:11.981Z,6.97
2018-12-01T14:30:11.888Z,9.33
2018-12-01T14:35:12.568Z,9.33
2018-12-01T14:40:11.168Z,5.27
2018-12-01T14:45:10.259Z,4.90
2018-12-01T14:50:09.118Z,6.90
2018-12-01T14:55:10.042Z,9.53
2018-12-01T15:00:14.095Z,11.27
2018-12-01T15:05:11.658Z,7.97
2018-12-01T15:10:18.050Z,6.50
2018-12-01T15:15:17.683Z,9.83
2018-12-01T15:20:19.209Z,16.93
2018-12-01T15:25:18.718Z,6.53
2018-12-01T15:30:23.112Z,14.07
2018-12-01T15:35:20.828Z,8.00
2018-12-01T15:40:18.801Z,7.50
2018-12-01T15:45:17.341Z,4.83
2018-12-01T15:50:18.804Z,6.53
2018-12-01T15:55:16.308Z,7.10
2018-12-01T16:00:16.263Z,5.43
2018-12-01T16:05:14.731Z,9.53
2018-12-01T16:10:14.382Z,9.27
2018-12-01T16:15:15.318Z,5.53
2018-12-01T16:20:13.890Z,17.17
2018-12-01T16:25:19.418Z,10.30
2018-12-01T16:30:20.660Z,4.60
2018-12-01T16:35:18.241Z,8.20
2018-12-01T16:40:18.531Z,9.00
2018-12-01T16:45:16.180Z,5.67
2018-12-01T16:50:14.710Z,8.50
2018-12-01T16:55:13.441Z,9.33
2018-12-01T17:00:16.663Z,7.70
2018-12-01T17:05:16.303Z,7.80
2018-12-01T17:10:21.079Z,6.60
2018-12-01T17:15:20.307Z,11.40
2018-12-01T17:20:18.531Z,5.40
2018-12-01T17:25:16.385Z,5.73
2018-12-01T17:30:17.568Z,6.77
2018-12-01T17:35:16.336Z,5.07
2018-12-01T17:40:17.424Z,13.30
2018-12-01T17:45:14.999Z,10.00
2018-12-01T17:50:13.652Z,3.47
2018-12-01T17:55:12.723Z,4.00
2018-12-01T18:00:20.562Z,6.30
2018-12-01T18:05:22.762Z,4.73
2018-12-01T18:10:20.244Z,8.77
2018-12-01T18:15:18.586Z,9.87
2018-12-01T18:20:20.888Z,10.70
2018-12-01T18:25:18.350Z,5.60
2018-12-01T18:30:20.569Z,3.70
2018-12-01T18:35:18.021Z,4.23
2018-12-01T18:40:20.117Z,6.90
2018-12-01T18:45:18.865Z,7.23
2018-12-01T18:50:18.191Z,9.53
2018-12-01T18:55:15.646Z,6.37
2018-12-01T19:00:15.338Z,6.67
2018-12-01T19:05:12.893Z,15.57
2018-12-01T19:10:11.666Z,5.30
2018-12-01T19:15:11.310Z,5.53
2018-12-01T19:20:11.057Z,7.07
2018-12-01T19:25:11.765Z,5.23
2018-12-01T19:30:14.782Z,13.07
2018-12-01T19:35:15.523Z,5.73
2018-12-01T19:40:19.377Z,5.17
2018-12-01T19:45:23.675Z,7.30
2018-12-01T19:50:36.478Z,2.20
2018-12-01T19:55:41.221Z,2.70
2018-12-01T20:00:52.123Z,3.63
2018-12-01T20:05:52.260Z,4.83
2018-12-01T20:10:53.450Z,3.10
2018-12-01T20:16:00.288Z,4.53
2018-12-01T20:20:57.893Z,2.60
2018-12-01T20:25:55.296Z,8.20
2018-12-01T20:30:52.813Z,7.13
2018-12-01T20:35:54.450Z,3.73
2018-12-01T20:40:57.476Z,4.00
2018-12-01T20:45:49.690Z,16.47
2018-12-01T20:50:47.126Z,3.20
2018-12-01T20:55:49.283Z,2.97
2018-12-01T21:00:46.783Z,3.50
2018-12-01T21:05:47.652Z,6.73
2018-12-01T21:10:51.082Z,2.40
2018-12-01T21:15:49.163Z,2.40
2018-12-01T21:20:46.693Z,2.07
2018-12-01T21:25:44.254Z,3.37
2018-12-01T21:30:42.214Z,3.60
2018-12-01T21:35:39.851Z,1.70
2018-12-01T21:40:37.410Z,3.63
2018-12-01T21:45:34.841Z,2.87
2018-12-01T21:50:32.286Z,2.43
2018-12-01T21:55:31.902Z,1.23
2018-12-01T22:00:30.454Z,1.40
2018-12-01T22:05:34.503Z,2.00
2018-12-01T22:10:31.984Z,2.30
2018-12-01T22:15:29.413Z,1.80
2018-12-01T22:20:27.092Z,3.37
2018-12-01T22:25:24.605Z,2.03
2018-12-01T22:30:25.179Z,7.33
2018-12-01T22:35:23.784Z,2.10
2018-12-01T22:40:22.781Z,1.47
2018-12-01T22:45:20.281Z,2.00
2018-12-01T22:50:18.923Z,4.37
2018-12-01T22:55:18.657Z,1.67
2018-12-01T23:00:18.962Z,2.20
2018-12-01T23:05:17.054Z,3.40
2018-12-01T23:10:15.957Z,2.00
2018-12-01T23:15:15.361Z,2.07
2018-12-01T23:20:22.906Z,3.47
2018-12-01T23:25:22.496Z,1.90
2018-12-01T23:30:30.205Z,5.07
2018-12-01T23:35:28.629Z,1.50
2018-12-01T23:40:26.042Z,1.00
2018-12-01T23:45:23.645Z,2.50
2018-12-01T23:50:23.011Z,2.53
2018-12-01T23:55:20.453Z,1.73
